Forseti — V2PV4 — position and weather

sailwx.info

Track history (hours):
 
Tides and Currents Weather Stations Pressure Air Temp Water Temp Dewpoint Dewpoint Depression Visibility Wind Speed Wind Dir Waves Ship Positions

Forseti

Last reported at 2014-Nov-01 12:33 UTC. Time now 2014-Nov-01 13:21 UTC.
Position N 54°09' E 009°22'.

Length 85 m; draft 4.6 m.

Type: Cargo ship. MMSI: 304010297.

Date/timePositionNaut miles runAvg speedWind from/ knotsBaromVisibWave heightAir tempDewpointWater temp
2014-Nov-01 12:33N 54°09' E 009°22'7 6.5
2014-Nov-01 11:33N 54°03' E 009°18'7 7.4
2014-Nov-01 10:33N 53°56' E 009°13'5 4.5
2014-Nov-01 09:33N 53°53' E 009°07'6 6.3
2014-Nov-01 08:33N 53°51' E 008°57'9 8.6
2014-Nov-01 07:33N 53°52' E 008°43'9 8.8
2014-Nov-01 06:33N 53°58' E 008°32'10 9.9
2014-Nov-01 05:33N 53°59' E 008°15'9 9.4
2014-Nov-01 04:33N 54°01' E 007°59'1010.1
2014-Nov-01 03:33N 54°06' E 007°44'1010.1
2014-Nov-01 02:34N 54°09' E 007°28'1110.6
2014-Nov-01 01:33N 54°09' E 007°10'1110.8
2014-Nov-01 00:33N 54°09' E 006°51'1110.6
2014-Oct-31 23:33N 54°08' E 006°33'1110.2
2014-Oct-31 22:31N 54°08' E 006°15'10 9.9
2014-Oct-31 21:30N 54°06' E 005°58'9 9.8
2014-Oct-31 20:33N 54°05' E 005°42'10 9.7
2014-Oct-31 19:33N 54°04' E 005°26'10 9.7
2014-Oct-31 18:33N 54°02' E 005°10'9 9.4
2014-Oct-31 17:33N 54°01' E 004°54'9 9.3
2014-Oct-31 16:33N 54°00' E 004°38'151 4.1
2014-Oct-30 03:33N 53°25' E 000°31'9 8.6
2014-Oct-30 02:33N 53°30' E 000°20'9 9.2
2014-Oct-30 01:33N 53°34' E 000°06'1211.7
2014-Oct-30 00:33N 53°40' W 000°12'1010.3
2014-Oct-29 23:33N 53°42' W 000°29'9 6.4
2014-Oct-29 22:07N 53°38' W 000°43'3 4.4
2014-Oct-29 21:31N 53°36' W 000°44'1 0.0
2014-Oct-29 10:27N 53°35' W 000°44'0 0.0
2014-Oct-28 10:20N 53°35' W 000°44'0 0.0
2014-Oct-27 21:32N 53°35' W 000°44'2 1.8
2014-Oct-27 20:25N 53°37' W 000°42'6 6.8
2014-Oct-27 19:31N 53°43' W 000°39'8 8.3
2014-Oct-27 18:34N 53°42' W 000°26'9 8.6
2014-Oct-27 17:33N 53°40' W 000°12'1212.2
2014-Oct-27 16:34N 53°34' E 000°06'10 9.8
2014-Oct-27 15:33N 53°33' E 000°23'2 2.1
2014-Oct-27 14:32N 53°35' E 000°25'0 0.0
2014-Oct-27 13:23N 53°35' E 000°25'0 0.0
2014-Oct-27 12:29N 53°35' E 000°25'0 0.0
2014-Oct-27 11:20N 53°35' E 000°25'0 0.0
2014-Oct-27 10:32N 53°35' E 000°25'0 0.0
2014-Oct-27 09:23N 53°35' E 000°25'0 0.0
2014-Oct-27 08:26N 53°35' E 000°25'0 0.2
2014-Oct-27 07:29N 53°35' E 000°25'0 0.0
2014-Oct-27 06:29N 53°35' E 000°25'0 0.0
2014-Oct-27 05:29N 53°35' E 000°25'0 0.0
2014-Oct-27 04:23N 53°35' E 000°25'0 0.0
2014-Oct-27 03:32N 53°35' E 000°25'0 0.2
2014-Oct-27 02:29N 53°35' E 000°25'0 0.0
2014-Oct-27 01:32N 53°35' E 000°25'0 0.0
2014-Oct-27 00:29N 53°35' E 000°25'0 0.0
2014-Oct-26 23:26N 53°35' E 000°25'0 0.0
2014-Oct-26 22:29N 53°35' E 000°25'0 0.0
2014-Oct-26 21:26N 53°35' E 000°25'0 0.0
2014-Oct-26 20:32N 53°35' E 000°25'0 0.0
2014-Oct-26 19:32N 53°35' E 000°25'0 0.2
2014-Oct-26 18:32N 53°35' E 000°25'0 0.0
2014-Oct-26 17:32N 53°35' E 000°25'0 0.0
2014-Oct-26 16:29N 53°35' E 000°25'0 0.0
2014-Oct-26 15:32N 53°35' E 000°25'0 0.2
2014-Oct-26 14:32N 53°35' E 000°25'0 0.0
2014-Oct-26 13:32N 53°35' E 000°25'0 0.0
2014-Oct-26 12:23N 53°35' E 000°25'3 3.3
2014-Oct-26 11:33N 53°33' E 000°27'1211.2
2014-Oct-26 10:27N 53°22' E 000°37'27 8.9
2014-Oct-26 07:28N 53°02' E 001°07'7 8.1
2014-Oct-26 06:33N 52°59' E 001°18'8 8.5
2014-Oct-26 05:33N 52°55' E 001°31'1110.5
2014-Oct-26 04:33N 52°47' E 001°42'1212.4
2014-Oct-26 03:33N 52°37' E 001°54'1313.0
2014-Oct-26 02:33N 52°25' E 001°48'1312.5
2014-Oct-26 01:33N 52°13' E 001°43'1111.0
2014-Oct-26 00:33N 52°02' E 001°38'9 9.2
2014-Oct-25 23:33N 51°56' E 001°27'7 7.0
2014-Oct-25 22:33N 51°59' E 001°17'6 5.6
2014-Oct-25 21:33N 52°02' E 001°09'0 0.0
2014-Oct-25 20:33N 52°02' E 001°09'0 0.0
2014-Oct-25 19:33N 52°02' E 001°09'0 0.0
2014-Oct-25 18:33N 52°02' E 001°09'0 0.0
2014-Oct-25 17:33N 52°02' E 001°09'0 0.0
2014-Oct-25 16:33N 52°02' E 001°09'0 0.0
2014-Oct-25 15:33N 52°02' E 001°09'0 0.0
2014-Oct-25 14:33N 52°02' E 001°09'0 0.0
2014-Oct-25 13:33N 52°02' E 001°09'0 0.0
2014-Oct-25 12:33N 52°02' E 001°09'0 0.0
2014-Oct-25 11:33N 52°02' E 001°09'0 0.0
2014-Oct-25 10:33N 52°02' E 001°09'0 0.0
2014-Oct-25 09:33N 52°02' E 001°09'0 0.0
2014-Oct-25 08:33N 52°02' E 001°09'0 0.0
2014-Oct-25 07:33N 52°02' E 001°09'0 0.0
2014-Oct-25 06:33N 52°02' E 001°09'0 0.0
2014-Oct-25 05:33N 52°02' E 001°09'0 0.0
2014-Oct-25 04:33N 52°02' E 001°09'0 0.0
2014-Oct-25 03:33N 52°02' E 001°09'0 0.0
2014-Oct-25 02:33N 52°02' E 001°09'0 0.0
2014-Oct-25 01:33N 52°02' E 001°09'0 0.0
2014-Oct-25 00:33N 52°02' E 001°09'0 0.0
2014-Oct-24 23:33N 52°02' E 001°09'0 0.0
2014-Oct-24 22:33N 52°02' E 001°09'0 0.0
2014-Oct-24 21:33N 52°02' E 001°09'2 1.6
2014-Oct-24 20:33N 52°01' E 001°11'7 7.4
2014-Oct-24 19:33N 51°56' E 001°19'9 9.1
2014-Oct-24 18:33N 51°58' E 001°33'9 9.1
2014-Oct-24 17:33N 52°04' E 001°43'9 8.8
2014-Oct-24 16:33N 52°09' E 001°55'52 8.2
2014-Oct-24 10:16N 52°37' E 003°06'6 9.0
2014-Oct-24 09:33N 52°40' E 003°15'41 6.9
2014-Oct-24 03:32N 53°04' E 004°11'5 5.4
2014-Oct-24 02:32N 53°08' E 004°18'29 6.8
2014-Oct-23 22:16N 53°31' E 004°48'6 8.5
2014-Oct-23 21:33N 53°33' E 004°57'8 8.1
2014-Oct-23 20:33N 53°36' E 005°10'8 7.6
2014-Oct-23 19:33N 53°38' E 005°22'7 7.3
2014-Oct-23 18:33N 53°40' E 005°34'7 7.2
2014-Oct-23 17:33N 53°43' E 005°45'8 8.0
2014-Oct-23 16:32N 53°45' E 005°58'56 9.3
2014-Oct-23 10:33N 53°60' E 007°30'8 8.2
2014-Oct-23 09:33N 54°02' E 007°43'8 8.1
2014-Oct-23 08:33N 54°01' E 007°57'17 7.8
2014-Oct-23 06:25N 53°59' E 008°25'910.8
2014-Oct-23 05:33N 53°56' E 008°40'1111.4
2014-Oct-23 04:33N 53°51' E 008°57'7 5.0
2014-Oct-23 03:09N 53°53' E 009°09'0 0.1
2014-Oct-23 02:33N 53°53' E 009°09'0 0.1
2014-Oct-23 01:27N 53°53' E 009°09'0 0.0
2014-Oct-23 00:33N 53°53' E 009°09'0 0.0
2014-Oct-22 23:33N 53°53' E 009°09'0 0.0
2014-Oct-22 22:33N 53°53' E 009°09'0 0.1
2014-Oct-22 21:33N 53°53' E 009°09'  
Track history (hours):
 
Tides and Currents Weather Stations Pressure Air Temp Water Temp Dewpoint Dewpoint Depression Visibility Wind Speed Wind Dir Waves Ship Positions

Forseti

Last reported at 2014-Nov-01 12:33 UTC. Time now 2014-Nov-01 13:21 UTC.
Position N 54°09' E 009°22'.

Length 85 m; draft 4.6 m.

Type: Cargo ship. MMSI: 304010297.

Date/timePositionNaut miles runAvg speedWind from/ knotsBaromVisibWave heightAir tempDewpointWater temp
2014-Nov-01 12:33N 54°09' E 009°22'7 6.5
2014-Nov-01 11:33N 54°03' E 009°18'7 7.4
2014-Nov-01 10:33N 53°56' E 009°13'5 4.5
2014-Nov-01 09:33N 53°53' E 009°07'6 6.3
2014-Nov-01 08:33N 53°51' E 008°57'9 8.6
2014-Nov-01 07:33N 53°52' E 008°43'9 8.8
2014-Nov-01 06:33N 53°58' E 008°32'10 9.9
2014-Nov-01 05:33N 53°59' E 008°15'9 9.4
2014-Nov-01 04:33N 54°01' E 007°59'1010.1
2014-Nov-01 03:33N 54°06' E 007°44'1010.1
2014-Nov-01 02:34N 54°09' E 007°28'1110.6
2014-Nov-01 01:33N 54°09' E 007°10'1110.8
2014-Nov-01 00:33N 54°09' E 006°51'1110.6
2014-Oct-31 23:33N 54°08' E 006°33'1110.2
2014-Oct-31 22:31N 54°08' E 006°15'10 9.9
2014-Oct-31 21:30N 54°06' E 005°58'9 9.8
2014-Oct-31 20:33N 54°05' E 005°42'10 9.7
2014-Oct-31 19:33N 54°04' E 005°26'10 9.7
2014-Oct-31 18:33N 54°02' E 005°10'9 9.4
2014-Oct-31 17:33N 54°01' E 004°54'9 9.3
2014-Oct-31 16:33N 54°00' E 004°38'151 4.1
2014-Oct-30 03:33N 53°25' E 000°31'9 8.6
2014-Oct-30 02:33N 53°30' E 000°20'9 9.2
2014-Oct-30 01:33N 53°34' E 000°06'1211.7
2014-Oct-30 00:33N 53°40' W 000°12'1010.3
2014-Oct-29 23:33N 53°42' W 000°29'9 6.4
2014-Oct-29 22:07N 53°38' W 000°43'3 4.4
2014-Oct-29 21:31N 53°36' W 000°44'1 0.0
2014-Oct-29 10:27N 53°35' W 000°44'0 0.0
2014-Oct-28 10:20N 53°35' W 000°44'0 0.0
2014-Oct-27 21:32N 53°35' W 000°44'2 1.8
2014-Oct-27 20:25N 53°37' W 000°42'6 6.8
2014-Oct-27 19:31N 53°43' W 000°39'8 8.3
2014-Oct-27 18:34N 53°42' W 000°26'9 8.6
2014-Oct-27 17:33N 53°40' W 000°12'1212.2
2014-Oct-27 16:34N 53°34' E 000°06'10 9.8
2014-Oct-27 15:33N 53°33' E 000°23'2 2.1
2014-Oct-27 14:32N 53°35' E 000°25'0 0.0
2014-Oct-27 13:23N 53°35' E 000°25'0 0.0
2014-Oct-27 12:29N 53°35' E 000°25'0 0.0
2014-Oct-27 11:20N 53°35' E 000°25'0 0.0
2014-Oct-27 10:32N 53°35' E 000°25'0 0.0
2014-Oct-27 09:23N 53°35' E 000°25'0 0.0
2014-Oct-27 08:26N 53°35' E 000°25'0 0.2
2014-Oct-27 07:29N 53°35' E 000°25'0 0.0
2014-Oct-27 06:29N 53°35' E 000°25'0 0.0
2014-Oct-27 05:29N 53°35' E 000°25'0 0.0
2014-Oct-27 04:23N 53°35' E 000°25'0 0.0
2014-Oct-27 03:32N 53°35' E 000°25'0 0.2
2014-Oct-27 02:29N 53°35' E 000°25'0 0.0
2014-Oct-27 01:32N 53°35' E 000°25'0 0.0
2014-Oct-27 00:29N 53°35' E 000°25'0 0.0
2014-Oct-26 23:26N 53°35' E 000°25'0 0.0
2014-Oct-26 22:29N 53°35' E 000°25'0 0.0
2014-Oct-26 21:26N 53°35' E 000°25'0 0.0
2014-Oct-26 20:32N 53°35' E 000°25'0 0.0
2014-Oct-26 19:32N 53°35' E 000°25'0 0.2
2014-Oct-26 18:32N 53°35' E 000°25'0 0.0
2014-Oct-26 17:32N 53°35' E 000°25'0 0.0
2014-Oct-26 16:29N 53°35' E 000°25'0 0.0
2014-Oct-26 15:32N 53°35' E 000°25'0 0.2
2014-Oct-26 14:32N 53°35' E 000°25'0 0.0
2014-Oct-26 13:32N 53°35' E 000°25'0 0.0
2014-Oct-26 12:23N 53°35' E 000°25'3 3.3
2014-Oct-26 11:33N 53°33' E 000°27'1211.2
2014-Oct-26 10:27N 53°22' E 000°37'27 8.9
2014-Oct-26 07:28N 53°02' E 001°07'7 8.1
2014-Oct-26 06:33N 52°59' E 001°18'8 8.5
2014-Oct-26 05:33N 52°55' E 001°31'1110.5
2014-Oct-26 04:33N 52°47' E 001°42'1212.4
2014-Oct-26 03:33N 52°37' E 001°54'1313.0
2014-Oct-26 02:33N 52°25' E 001°48'1312.5
2014-Oct-26 01:33N 52°13' E 001°43'1111.0
2014-Oct-26 00:33N 52°02' E 001°38'9 9.2
2014-Oct-25 23:33N 51°56' E 001°27'7 7.0
2014-Oct-25 22:33N 51°59' E 001°17'6 5.6
2014-Oct-25 21:33N 52°02' E 001°09'0 0.0
2014-Oct-25 20:33N 52°02' E 001°09'0 0.0
2014-Oct-25 19:33N 52°02' E 001°09'0 0.0
2014-Oct-25 18:33N 52°02' E 001°09'0 0.0
2014-Oct-25 17:33N 52°02' E 001°09'0 0.0
2014-Oct-25 16:33N 52°02' E 001°09'0 0.0
2014-Oct-25 15:33N 52°02' E 001°09'0 0.0
2014-Oct-25 14:33N 52°02' E 001°09'0 0.0
2014-Oct-25 13:33N 52°02' E 001°09'0 0.0
2014-Oct-25 12:33N 52°02' E 001°09'0 0.0
2014-Oct-25 11:33N 52°02' E 001°09'0 0.0
2014-Oct-25 10:33N 52°02' E 001°09'0 0.0
2014-Oct-25 09:33N 52°02' E 001°09'0 0.0
2014-Oct-25 08:33N 52°02' E 001°09'0 0.0
2014-Oct-25 07:33N 52°02' E 001°09'0 0.0
2014-Oct-25 06:33N 52°02' E 001°09'0 0.0
2014-Oct-25 05:33N 52°02' E 001°09'0 0.0
2014-Oct-25 04:33N 52°02' E 001°09'0 0.0
2014-Oct-25 03:33N 52°02' E 001°09'0 0.0
2014-Oct-25 02:33N 52°02' E 001°09'0 0.0
2014-Oct-25 01:33N 52°02' E 001°09'0 0.0
2014-Oct-25 00:33N 52°02' E 001°09'0 0.0
2014-Oct-24 23:33N 52°02' E 001°09'0 0.0
2014-Oct-24 22:33N 52°02' E 001°09'0 0.0
2014-Oct-24 21:33N 52°02' E 001°09'2 1.6
2014-Oct-24 20:33N 52°01' E 001°11'7 7.4
2014-Oct-24 19:33N 51°56' E 001°19'9 9.1
2014-Oct-24 18:33N 51°58' E 001°33'9 9.1
2014-Oct-24 17:33N 52°04' E 001°43'9 8.8
2014-Oct-24 16:33N 52°09' E 001°55'52 8.2
2014-Oct-24 10:16N 52°37' E 003°06'6 9.0
2014-Oct-24 09:33N 52°40' E 003°15'41 6.9
2014-Oct-24 03:32N 53°04' E 004°11'5 5.4
2014-Oct-24 02:32N 53°08' E 004°18'29 6.8
2014-Oct-23 22:16N 53°31' E 004°48'6 8.5
2014-Oct-23 21:33N 53°33' E 004°57'8 8.1
2014-Oct-23 20:33N 53°36' E 005°10'8 7.6
2014-Oct-23 19:33N 53°38' E 005°22'7 7.3
2014-Oct-23 18:33N 53°40' E 005°34'7 7.2
2014-Oct-23 17:33N 53°43' E 005°45'8 8.0
2014-Oct-23 16:32N 53°45' E 005°58'56 9.3
2014-Oct-23 10:33N 53°60' E 007°30'8 8.2
2014-Oct-23 09:33N 54°02' E 007°43'8 8.1
2014-Oct-23 08:33N 54°01' E 007°57'17 7.8
2014-Oct-23 06:25N 53°59' E 008°25'910.8
2014-Oct-23 05:33N 53°56' E 008°40'1111.4
2014-Oct-23 04:33N 53°51' E 008°57'7 5.0
2014-Oct-23 03:09N 53°53' E 009°09'0 0.1
2014-Oct-23 02:33N 53°53' E 009°09'0 0.1
2014-Oct-23 01:27N 53°53' E 009°09'0 0.0
2014-Oct-23 00:33N 53°53' E 009°09'0 0.0
2014-Oct-22 23:33N 53°53' E 009°09'0 0.0
2014-Oct-22 22:33N 53°53' E 009°09'0 0.1
2014-Oct-22 21:33N 53°53' E 009°09'  

Dump ship's entire track history